createdAt,value
2018-05-18T00:00:25.022Z,55.79
2018-05-18T00:01:33.795Z,55.69
2018-05-18T00:02:42.842Z,55.69
2018-05-18T00:03:51.995Z,55.69
2018-05-18T00:05:01.043Z,55.69
2018-05-18T00:06:09.817Z,55.69
2018-05-18T00:07:18.591Z,55.41
2018-05-18T00:08:27.367Z,55.41
2018-05-18T00:09:36.194Z,55.51
2018-05-18T00:10:44.968Z,55.6
2018-05-18T00:11:54.284Z,55.69
2018-05-18T00:13:03.326Z,55.6
2018-05-18T00:14:12.110Z,55.51
2018-05-18T00:15:21.550Z,55.6
2018-05-18T00:16:30.322Z,55.6
2018-05-18T00:17:39.639Z,55.6
2018-05-18T00:18:48.682Z,55.6
2018-05-18T00:19:57.458Z,55.6
2018-05-18T00:21:06.908Z,55.6
2018-05-18T00:22:15.959Z,55.6
2018-05-18T00:23:24.998Z,55.69
2018-05-18T00:24:33.773Z,55.51
2018-05-18T00:25:42.542Z,55.6
2018-05-18T00:26:51.717Z,55.6
2018-05-18T00:28:00.484Z,55.79
2018-05-18T00:29:09.257Z,55.79
2018-05-18T00:30:18.303Z,55.6
2018-05-18T00:31:27.078Z,55.79
2018-05-18T00:32:36.123Z,55.6
2018-05-18T00:33:44.901Z,55.69
2018-05-18T00:34:53.680Z,55.6
2018-05-18T00:36:02.722Z,55.69
2018-05-18T00:37:11.765Z,55.69
2018-05-18T00:38:20.912Z,55.69
2018-05-18T00:39:29.686Z,55.6
2018-05-18T00:40:38.458Z,55.69
2018-05-18T00:41:47.231Z,55.69
2018-05-18T00:42:56.004Z,55.6
2018-05-18T00:44:04.823Z,55.6
2018-05-18T00:45:13.875Z,55.99
2018-05-18T00:46:22.647Z,55.51
2018-05-18T00:47:31.696Z,55.69
2018-05-18T00:48:41.014Z,55.79
2018-05-18T00:49:50.631Z,55.79
2018-05-18T00:50:59.405Z,55.79
2018-05-18T00:52:08.809Z,55.89
2018-05-18T00:53:17.853Z,55.41
2018-05-18T00:54:26.625Z,55.79
2018-05-18T00:55:36.073Z,55.79
2018-05-18T00:56:44.848Z,55.51
2018-05-18T00:57:53.617Z,55.41
2018-05-18T00:59:02.658Z,55.51
2018-05-18T01:00:11.428Z,55.12
2018-05-18T01:01:20.299Z,55.51
2018-05-18T01:02:29.351Z,55.02
2018-05-18T01:03:38.122Z,55.6
2018-05-18T01:04:46.893Z,55.6
2018-05-18T01:05:55.934Z,55.12
2018-05-18T01:07:04.981Z,55.12
2018-05-18T01:08:14.029Z,55.99
2018-05-18T01:09:22.796Z,54.93
2018-05-18T01:10:31.579Z,55.22
2018-05-18T01:11:40.619Z,55.6
2018-05-18T01:12:49.442Z,55.51
2018-05-18T01:13:58.215Z,55.79
2018-05-18T01:15:06.985Z,55.51
2018-05-18T01:16:16.026Z,55.51
2018-05-18T01:17:25.078Z,55.6
2018-05-18T01:18:33.963Z,55.51
2018-05-18T01:19:43.007Z,54.93
2018-05-18T01:20:52.057Z,55.41
2018-05-18T01:22:00.831Z,54.93
2018-05-18T01:23:09.606Z,55.89
2018-05-18T01:24:18.732Z,55.02
2018-05-18T01:25:28.056Z,55.12
2018-05-18T01:26:37.388Z,55.02
2018-05-18T01:27:46.165Z,55.02
2018-05-18T01:28:54.938Z,54.83
2018-05-18T01:30:03.812Z,55.02
2018-05-18T01:31:12.582Z,55.02
2018-05-18T01:32:21.357Z,55.32
2018-05-18T01:33:30.138Z,55.22
2018-05-18T01:34:39.178Z,55.32
2018-05-18T01:35:48.052Z,55.22
2018-05-18T01:36:56.820Z,55.32
2018-05-18T01:38:05.591Z,55.22
2018-05-18T01:39:14.371Z,54.93
2018-05-18T01:40:23.141Z,54.93
2018-05-18T01:41:32.283Z,55.12
2018-05-18T01:42:41.888Z,55.12
2018-05-18T01:43:50.658Z,55.22
2018-05-18T01:44:59.432Z,54.93
2018-05-18T01:46:08.475Z,55.12
2018-05-18T01:47:17.562Z,55.02
2018-05-18T01:48:26.611Z,54.83
2018-05-18T01:49:35.667Z,54.83
2018-05-18T01:50:44.428Z,55.22
2018-05-18T01:51:53.205Z,54.93
2018-05-18T01:53:02.251Z,54.83
2018-05-18T01:54:11.567Z,54.83
2018-05-18T01:55:20.339Z,54.83
2018-05-18T01:56:29.662Z,54.83
2018-05-18T01:57:38.434Z,54.83
2018-05-18T01:58:47.778Z,55.02
2018-05-18T01:59:56.548Z,55.02
2018-05-18T02:01:05.597Z,55.02
2018-05-18T02:02:14.375Z,54.83
2018-05-18T02:03:23.700Z,54.83
2018-05-18T02:04:32.824Z,54.83
2018-05-18T02:05:41.875Z,54.83
2018-05-18T02:06:50.648Z,55.02
2018-05-18T02:07:59.690Z,54.83
2018-05-18T02:09:08.734Z,55.02
2018-05-18T02:10:18.074Z,55.22
2018-05-18T02:11:26.848Z,55.22
2018-05-18T02:12:35.890Z,55.22
2018-05-18T02:13:44.666Z,55.22
2018-05-18T02:14:53.438Z,54.8
2018-05-18T02:16:02.220Z,55
2018-05-18T02:17:10.993Z,54.83
2018-05-18T02:18:19.767Z,55.02
2018-05-18T02:19:29.441Z,55.02
2018-05-18T02:20:38.172Z,55.02
2018-05-18T02:21:46.941Z,54.93
2018-05-18T02:22:55.988Z,55.02
2018-05-18T02:24:05.030Z,55.02
2018-05-18T02:25:13.805Z,54.93
2018-05-18T02:26:22.844Z,55.02
2018-05-18T02:27:31.988Z,55
2018-05-18T02:28:41.037Z,54.93
2018-05-18T02:29:49.807Z,54.93
2018-05-18T02:30:58.851Z,54.83
2018-05-18T02:32:07.623Z,55.22
2018-05-18T02:33:16.464Z,54.83
2018-05-18T02:34:25.876Z,54.83
2018-05-18T02:35:34.917Z,54.93
2018-05-18T02:36:43.687Z,54.93
2018-05-18T02:37:52.730Z,54.83
2018-05-18T02:39:01.858Z,54.83
2018-05-18T02:40:11.177Z,55.12
2018-05-18T02:41:19.955Z,55.12
2018-05-18T02:42:28.726Z,55.32
2018-05-18T02:43:37.498Z,55.12
2018-05-18T02:44:46.562Z,55.02
2018-05-18T02:45:55.600Z,55.12
2018-05-18T02:47:04.653Z,54.83
2018-05-18T02:48:13.701Z,55.12
2018-05-18T02:49:23.024Z,55.02
2018-05-18T02:50:31.805Z,55.12
2018-05-18T02:51:40.860Z,55.22
2018-05-18T02:52:49.635Z,55.12
2018-05-18T02:53:58.948Z,55.12
2018-05-18T02:55:08.824Z,55.1
2018-05-18T02:56:18.511Z,55.32
2018-05-18T02:57:27.291Z,55.12
2018-05-18T02:58:36.337Z,55.32
2018-05-18T02:59:45.109Z,55.19
2018-05-18T03:00:54.155Z,55.19
2018-05-18T03:02:03.033Z,55.22
2018-05-18T03:03:11.815Z,55.32
2018-05-18T03:04:20.875Z,55.32
2018-05-18T03:05:29.655Z,55.12
2018-05-18T03:06:38.431Z,55.12
2018-05-18T03:07:48.157Z,55.12
2018-05-18T03:08:56.940Z,55.12
2018-05-18T03:10:05.713Z,55.1
2018-05-18T03:11:14.486Z,55.22
2018-05-18T03:12:23.270Z,55.22
2018-05-18T03:13:32.596Z,55.12
2018-05-18T03:14:41.914Z,55.12
2018-05-18T03:15:50.967Z,55.12
2018-05-18T03:17:00.012Z,55.38
2018-05-18T03:18:09.053Z,55.22
2018-05-18T03:19:18.394Z,55.12
2018-05-18T03:20:27.432Z,55.22
2018-05-18T03:21:36.476Z,55.22
2018-05-18T03:22:45.514Z,55.29
2018-05-18T03:23:54.282Z,55.22
2018-05-18T03:25:03.632Z,55.12
2018-05-18T03:26:12.943Z,55.22
2018-05-18T03:27:22.259Z,55.22
2018-05-18T03:28:31.311Z,55.22
2018-05-18T03:29:40.084Z,55.22
2018-05-18T03:30:49.011Z,55.32
2018-05-18T03:31:59.170Z,55.19
2018-05-18T03:33:07.949Z,55.19
2018-05-18T03:34:16.991Z,55
2018-05-18T03:35:25.759Z,55.19
2018-05-18T03:36:34.854Z,55.12
2018-05-18T03:37:43.633Z,55.22
2018-05-18T03:38:52.401Z,55.19
2018-05-18T03:40:01.719Z,55.1
2018-05-18T03:41:10.491Z,55.1
2018-05-18T03:42:19.612Z,55.1
2018-05-18T03:43:28.382Z,55.02
2018-05-18T03:44:37.153Z,55.12
2018-05-18T03:45:45.921Z,55.38
2018-05-18T03:46:55.035Z,55.51
2018-05-18T03:48:04.180Z,55.38
2018-05-18T03:49:13.503Z,55.1
2018-05-18T03:50:22.548Z,55.38
2018-05-18T03:51:31.344Z,55.47
2018-05-18T03:52:40.091Z,55.47
2018-05-18T03:53:49.511Z,55.41
2018-05-18T03:54:58.294Z,55.1
2018-05-18T03:56:07.064Z,55.29
2018-05-18T03:57:16.379Z,55.47
2018-05-18T03:58:25.697Z,54.8
2018-05-18T03:59:34.571Z,54.9
2018-05-18T04:00:43.615Z,55.47
2018-05-18T04:01:52.387Z,54.83
2018-05-18T04:03:01.432Z,55.32
2018-05-18T04:04:10.205Z,55.47
2018-05-18T04:05:19.312Z,54.8
2018-05-18T04:06:28.084Z,54.8
2018-05-18T04:07:37.152Z,54.9
2018-05-18T04:08:45.919Z,54.9
2018-05-18T04:09:54.689Z,55.47
2018-05-18T04:11:03.829Z,54.8
2018-05-18T04:12:12.603Z,55.38
2018-05-18T04:13:21.651Z,54.8
2018-05-18T04:14:30.420Z,55.38
2018-05-18T04:15:39.467Z,55.38
2018-05-18T04:16:48.610Z,55.47
2018-05-18T04:17:57.649Z,55.38
2018-05-18T04:19:06.970Z,55.41
2018-05-18T04:20:16.021Z,55.38
2018-05-18T04:21:24.791Z,55.47
2018-05-18T04:22:33.915Z,55.38
2018-05-18T04:23:42.686Z,55.47
2018-05-18T04:24:51.737Z,55.1
2018-05-18T04:26:00.782Z,55.47
2018-05-18T04:27:10.098Z,55.1
2018-05-18T04:28:18.916Z,54.8
2018-05-18T04:29:27.966Z,55.38
2018-05-18T04:30:36.739Z,55.38
2018-05-18T04:31:46.326Z,55.38
2018-05-18T04:32:55.102Z,55.38
2018-05-18T04:34:04.166Z,55.47
2018-05-18T04:35:13.205Z,55.47
2018-05-18T04:36:22.254Z,55.38
2018-05-18T04:37:31.297Z,55.29
2018-05-18T04:38:40.078Z,54.8
2018-05-18T04:39:49.692Z,54.8
2018-05-18T04:40:58.466Z,54.8
2018-05-18T04:42:07.247Z,54.9
2018-05-18T04:43:16.352Z,55.47
2018-05-18T04:44:25.440Z,54.8
2018-05-18T04:45:34.583Z,54.8
2018-05-18T04:46:43.632Z,54.9
2018-05-18T04:47:52.396Z,54.9
2018-05-18T04:49:01.439Z,55.47
2018-05-18T04:50:10.212Z,55.47
2018-05-18T04:51:19.033Z,54.9
2018-05-18T04:52:28.082Z,54.8
2018-05-18T04:53:37.128Z,54.71
2018-05-18T04:54:46.189Z,54.8
2018-05-18T04:55:55.511Z,54.9
2018-05-18T04:57:04.826Z,54.8
2018-05-18T04:58:13.593Z,54.8
2018-05-18T04:59:22.634Z,54.71
2018-05-18T05:00:31.677Z,54.9
2018-05-18T05:01:40.451Z,54.8
2018-05-18T05:02:49.539Z,54.71
2018-05-18T05:03:58.588Z,55
2018-05-18T05:05:07.628Z,54.8
2018-05-18T05:06:16.674Z,54.9
2018-05-18T05:07:25.719Z,54.8
2018-05-18T05:08:35.422Z,54.9
2018-05-18T05:09:44.190Z,55.51
2018-05-18T05:10:53.231Z,55.47
2018-05-18T05:12:02.269Z,54.8
2018-05-18T05:13:11.307Z,55.1
2018-05-18T05:14:20.411Z,55.1
2018-05-18T05:15:29.183Z,55.19
2018-05-18T05:16:38.500Z,55.1
2018-05-18T05:17:47.573Z,55.19
2018-05-18T05:18:56.317Z,55
2018-05-18T05:20:05.763Z,55.19
2018-05-18T05:21:14.531Z,55.47
2018-05-18T05:22:23.305Z,55.77
2018-05-18T05:23:32.078Z,55.67
2018-05-18T05:24:40.846Z,55.57
2018-05-18T05:25:49.624Z,56.15
2018-05-18T05:26:58.400Z,55.96
2018-05-18T05:28:07.171Z,55.86
2018-05-18T05:29:16.218Z,55.77
2018-05-18T05:30:25.291Z,55.96
2018-05-18T05:31:34.331Z,55.86
2018-05-18T05:32:43.379Z,56.15
2018-05-18T05:33:52.155Z,56.24
2018-05-18T05:35:00.932Z,56.15
2018-05-18T05:36:09.977Z,56.05
2018-05-18T05:37:18.800Z,56.05
2018-05-18T05:38:27.856Z,55.96
2018-05-18T05:39:36.619Z,56.15
2018-05-18T05:40:45.669Z,56.53
2018-05-18T05:41:54.990Z,56.53
2018-05-18T05:43:04.433Z,56.53
2018-05-18T05:44:13.478Z,56.34
2018-05-18T05:45:22.247Z,56.34
2018-05-18T05:46:31.287Z,56.15
2018-05-18T05:47:40.338Z,56.15
2018-05-18T05:48:49.781Z,56.15
2018-05-18T05:49:58.551Z,56.24
2018-05-18T05:51:07.325Z,56.05
2018-05-18T05:52:16.380Z,56.24
2018-05-18T05:53:25.151Z,55.67
2018-05-18T05:54:34.520Z,56.24
2018-05-18T05:55:43.291Z,56.24
2018-05-18T05:56:52.061Z,56.05
2018-05-18T05:58:01.103Z,56.15
2018-05-18T05:59:10.151Z,55.86
2018-05-18T06:00:19.198Z,55.77
2018-05-18T06:01:27.972Z,56.24
2018-05-18T06:02:37.015Z,56.05
2018-05-18T06:03:45.780Z,55.77
2018-05-18T06:04:54.555Z,55.67
2018-05-18T06:06:04.166Z,55.77
2018-05-18T06:07:13.489Z,55.86
2018-05-18T06:08:23.071Z,55.77
2018-05-18T06:09:31.850Z,55.96
2018-05-18T06:10:40.616Z,55.77
2018-05-18T06:11:49.487Z,55.86
2018-05-18T06:12:58.800Z,55.67
2018-05-18T06:14:08.129Z,55.86
2018-05-18T06:15:16.899Z,55.67
2018-05-18T06:16:25.678Z,55.86
2018-05-18T06:17:35.356Z,55.86
2018-05-18T06:18:44.757Z,55.96
2018-05-18T06:19:53.530Z,55.86
2018-05-18T06:21:02.573Z,55.96
2018-05-18T06:22:11.345Z,55.96
2018-05-18T06:23:20.213Z,56.05
2018-05-18T06:24:29.532Z,56.15
2018-05-18T06:25:38.310Z,56.05
2018-05-18T06:26:47.366Z,56.05
2018-05-18T06:27:56.410Z,55.96
2018-05-18T06:29:05.281Z,55.67
2018-05-18T06:30:14.598Z,55.77
2018-05-18T06:31:23.372Z,56.15
2018-05-18T06:32:32.147Z,56.15
2018-05-18T06:33:40.916Z,56.05
2018-05-18T06:34:50.134Z,56.15
2018-05-18T06:35:59.141Z,56.15
2018-05-18T06:37:07.912Z,55.96
2018-05-18T06:38:16.686Z,55.96
2018-05-18T06:39:25.457Z,56.24
2018-05-18T06:40:34.334Z,55.96
2018-05-18T06:41:43.644Z,56.24
2018-05-18T06:42:52.420Z,55.67
2018-05-18T06:44:01.462Z,55.57
2018-05-18T06:45:10.503Z,55.67
2018-05-18T06:46:19.322Z,55.67
2018-05-18T06:47:28.093Z,55.57
2018-05-18T06:48:37.130Z,55.47
2018-05-18T06:49:46.169Z,56.34
2018-05-18T06:50:55.213Z,55.38
2018-05-18T06:52:03.988Z,55.67
2018-05-18T06:53:12.757Z,55.67
2018-05-18T06:54:21.807Z,55.38
2018-05-18T06:55:30.857Z,55.29
2018-05-18T06:56:39.630Z,55.57
2018-05-18T06:57:48.727Z,55.47
2018-05-18T06:58:57.775Z,55.47
2018-05-18T07:00:06.549Z,55.38
2018-05-18T07:01:15.874Z,55.47
2018-05-18T07:02:24.649Z,55.47
2018-05-18T07:03:33.778Z,55.57
2018-05-18T07:04:42.818Z,55.57
2018-05-18T07:05:51.880Z,55.47
2018-05-18T07:07:00.924Z,55.57
2018-05-18T07:08:09.698Z,55.57
2018-05-18T07:09:18.796Z,55.57
2018-05-18T07:10:28.250Z,55.57
2018-05-18T07:11:36.976Z,55.57
2018-05-18T07:12:45.750Z,55.47
2018-05-18T07:13:54.795Z,55.77
2018-05-18T07:15:04.118Z,55.57
2018-05-18T07:16:13.159Z,55.67
2018-05-18T07:17:21.934Z,55.67
2018-05-18T07:18:30.705Z,55.47
2018-05-18T07:19:39.754Z,55.57
2018-05-18T07:20:48.845Z,55.47
2018-05-18T07:21:58.161Z,55.67
2018-05-18T07:23:07.011Z,55.47
2018-05-18T07:24:15.711Z,55.77
2018-05-18T07:25:24.486Z,55.77
2018-05-18T07:26:33.635Z,55.77
2018-05-18T07:27:42.409Z,55.57
2018-05-18T07:28:51.455Z,55.47
2018-05-18T07:30:00.585Z,55.47
2018-05-18T07:31:09.307Z,55.47
2018-05-18T07:32:18.128Z,55.38
2018-05-18T07:33:26.895Z,55.77
2018-05-18T07:34:35.667Z,55.38
2018-05-18T07:35:44.709Z,55.67
2018-05-18T07:36:53.480Z,55.67
2018-05-18T07:38:02.303Z,55.38
2018-05-18T07:39:11.345Z,55.38
2018-05-18T07:40:20.660Z,55.38
2018-05-18T07:41:29.454Z,55.47
2018-05-18T07:42:38.216Z,55.67
2018-05-18T07:43:47.117Z,55.67
2018-05-18T07:44:55.862Z,55.57
2018-05-18T07:46:04.911Z,55.57
2018-05-18T07:47:13.680Z,55.57
2018-05-18T07:48:22.994Z,55.57
2018-05-18T07:49:32.079Z,55.57
2018-05-18T07:50:40.847Z,55.57
2018-05-18T07:51:49.624Z,55.67
2018-05-18T07:52:58.681Z,55.67
2018-05-18T07:54:08.003Z,55.57
2018-05-18T07:55:17.147Z,55.57
2018-05-18T07:56:25.920Z,55.57
2018-05-18T07:57:34.696Z,55.38
2018-05-18T07:58:43.470Z,55.57
2018-05-18T07:59:52.512Z,55.57
2018-05-18T08:01:01.582Z,55.77
2018-05-18T08:02:10.353Z,55.77
2018-05-18T08:03:19.124Z,55.77
2018-05-18T08:04:27.898Z,55.77
2018-05-18T08:05:36.666Z,55.57
2018-05-18T08:06:45.540Z,55.47
2018-05-18T08:07:54.376Z,55.47
2018-05-18T08:09:03.737Z,55.47
2018-05-18T08:10:12.784Z,55.47
2018-05-18T08:11:22.106Z,55.57
2018-05-18T08:12:31.551Z,55.57
2018-05-18T08:13:40.596Z,55.57
2018-05-18T08:14:49.376Z,55.57
2018-05-18T08:15:58.137Z,55.57
2018-05-18T08:17:06.910Z,55.77
2018-05-18T08:18:15.791Z,55.67
2018-05-18T08:19:25.106Z,55.38
2018-05-18T08:20:34.285Z,55.67
2018-05-18T08:21:43.316Z,55.67
2018-05-18T08:22:52.356Z,55.57
2018-05-18T08:24:01.232Z,55.57
2018-05-18T08:25:10.287Z,55.67
2018-05-18T08:26:19.884Z,55.47
2018-05-18T08:27:28.930Z,55.77
2018-05-18T08:28:38.287Z,55.77
2018-05-18T08:29:47.558Z,55.67
2018-05-18T08:30:56.610Z,55.57
2018-05-18T08:32:05.925Z,55.86
2018-05-18T08:33:14.966Z,55.47
2018-05-18T08:34:23.734Z,55.47
2018-05-18T08:35:32.804Z,55.57
2018-05-18T08:36:41.578Z,55.57
2018-05-18T08:37:50.352Z,55.57
2018-05-18T08:38:59.672Z,55.96
2018-05-18T08:40:08.445Z,55.47
2018-05-18T08:41:17.265Z,55.57
2018-05-18T08:42:26.040Z,55.47
2018-05-18T08:43:35.082Z,55.47
2018-05-18T08:44:43.852Z,55.77
2018-05-18T08:45:52.627Z,55.57
2018-05-18T08:47:01.405Z,55.47
2018-05-18T08:48:10.720Z,55.67
2018-05-18T08:49:19.492Z,55.47
2018-05-18T08:50:28.541Z,55.19
2018-05-18T08:51:37.587Z,55.1
2018-05-18T08:52:46.681Z,55.1
2018-05-18T08:53:55.454Z,55.1
2018-05-18T08:55:04.230Z,54.9
2018-05-18T08:56:13.549Z,55.19
2018-05-18T08:57:22.316Z,55
2018-05-18T08:58:31.140Z,55.38
2018-05-18T08:59:39.911Z,55.1
2018-05-18T09:00:48.949Z,55
2018-05-18T09:01:57.722Z,55
2018-05-18T09:03:06.502Z,54.9
2018-05-18T09:04:15.318Z,54.9
2018-05-18T09:05:24.629Z,55
2018-05-18T09:06:33.401Z,55.38
2018-05-18T09:07:42.450Z,54.9
2018-05-18T09:08:51.295Z,55
2018-05-18T09:09:59.996Z,55
2018-05-18T09:11:09.038Z,55
2018-05-18T09:12:17.810Z,55.1
2018-05-18T09:13:26.852Z,55
2018-05-18T09:14:36.161Z,55
2018-05-18T09:15:45.527Z,55.1
2018-05-18T09:16:54.299Z,55.29
2018-05-18T09:18:03.069Z,55
2018-05-18T09:19:11.838Z,55
2018-05-18T09:20:20.886Z,55
2018-05-18T09:21:30.029Z,55.1
2018-05-18T09:22:39.339Z,54.9
2018-05-18T09:23:48.109Z,55.1
2018-05-18T09:24:56.882Z,55
2018-05-18T09:26:05.649Z,55
2018-05-18T09:27:14.823Z,55
2018-05-18T09:28:24.142Z,55.29
2018-05-18T09:29:32.917Z,55.29
2018-05-18T09:30:41.685Z,55.29
2018-05-18T09:31:50.465Z,55
2018-05-18T09:32:59.290Z,55.19
2018-05-18T09:34:08.934Z,55.19
2018-05-18T09:35:17.918Z,55.29
2018-05-18T09:36:26.966Z,55.19
2018-05-18T09:37:35.739Z,55.19
2018-05-18T09:38:44.912Z,55.29
2018-05-18T09:39:53.690Z,55.19
2018-05-18T09:41:02.818Z,55.29
2018-05-18T09:42:12.138Z,55.29
2018-05-18T09:43:20.910Z,55.29
2018-05-18T09:44:30.259Z,55.19
2018-05-18T09:45:39.303Z,55.29
2018-05-18T09:46:48.080Z,55.29
2018-05-18T09:47:57.123Z,55.19
2018-05-18T09:49:05.893Z,55.29
2018-05-18T09:50:15.242Z,55.29
2018-05-18T09:51:24.008Z,55
2018-05-18T09:52:33.049Z,55.29
2018-05-18T09:53:42.088Z,55.19
2018-05-18T09:54:51.008Z,55.19
2018-05-18T09:56:00.306Z,55.29
2018-05-18T09:57:09.080Z,55.29
2018-05-18T09:58:18.133Z,55.19
2018-05-18T09:59:27.449Z,55.19
2018-05-18T10:00:36.492Z,55.19
2018-05-18T10:01:45.660Z,55.29
2018-05-18T10:02:54.441Z,55.19
2018-05-18T10:04:03.209Z,55.1
2018-05-18T10:05:11.978Z,55.1
2018-05-18T10:06:20.752Z,55.1
2018-05-18T10:07:29.902Z,55.19
2018-05-18T10:08:38.680Z,55
2018-05-18T10:09:47.452Z,54.9
2018-05-18T10:10:56.496Z,55
2018-05-18T10:12:05.822Z,54.9
2018-05-18T10:13:14.697Z,54.8
2018-05-18T10:14:23.751Z,55.38
2018-05-18T10:15:32.523Z,54.8
2018-05-18T10:16:41.294Z,54.9
2018-05-18T10:17:50.608Z,54.9
2018-05-18T10:18:59.382Z,54.9
2018-05-18T10:20:08.426Z,55.19
2018-05-18T10:21:17.479Z,54.71
2018-05-18T10:22:26.525Z,55.1
2018-05-18T10:23:35.304Z,54.9
2018-05-18T10:24:44.171Z,55
2018-05-18T10:25:53.216Z,54.9
2018-05-18T10:27:02.030Z,55.19
2018-05-18T10:28:11.167Z,55.1
2018-05-18T10:29:19.938Z,55.1
2018-05-18T10:30:28.757Z,55.1
2018-05-18T10:31:37.525Z,55
2018-05-18T10:32:46.611Z,54.8
2018-05-18T10:33:55.748Z,55.1
2018-05-18T10:35:04.518Z,55.19
2018-05-18T10:36:13.390Z,55.1
2018-05-18T10:37:22.163Z,55.1
2018-05-18T10:38:30.933Z,55.1
2018-05-18T10:39:39.708Z,55
2018-05-18T10:40:49.469Z,54.8
2018-05-18T10:41:58.168Z,55.19
2018-05-18T10:43:06.940Z,54.9
2018-05-18T10:44:15.982Z,55.1
2018-05-18T10:45:24.848Z,55.1
2018-05-18T10:46:33.800Z,55
2018-05-18T10:47:42.629Z,54.9
2018-05-18T10:48:51.403Z,54.8
2018-05-18T10:50:00.176Z,55.1
2018-05-18T10:51:09.490Z,55
2018-05-18T10:52:18.261Z,54.9
2018-05-18T10:53:27.707Z,55
2018-05-18T10:54:36.487Z,54.8
2018-05-18T10:55:45.264Z,55
2018-05-18T10:56:54.024Z,55.19
2018-05-18T10:58:03.072Z,54.8
2018-05-18T10:59:11.841Z,55
2018-05-18T11:00:20.903Z,55
2018-05-18T11:01:29.678Z,55.1
2018-05-18T11:02:38.719Z,55
2018-05-18T11:03:47.769Z,55
2018-05-18T11:04:56.643Z,55.19
2018-05-18T11:06:05.956Z,55
2018-05-18T11:07:14.732Z,55
2018-05-18T11:08:23.777Z,55
2018-05-18T11:09:32.551Z,55
2018-05-18T11:10:41.428Z,54.8
2018-05-18T11:11:50.745Z,55.19
2018-05-18T11:12:59.522Z,54.8
2018-05-18T11:14:09.085Z,55
2018-05-18T11:15:17.756Z,54.8
2018-05-18T11:16:26.935Z,55.19
2018-05-18T11:17:35.709Z,55
2018-05-18T11:18:44.481Z,55
2018-05-18T11:19:53.251Z,55
2018-05-18T11:21:02.377Z,55
2018-05-18T11:22:11.423Z,55.19
2018-05-18T11:23:20.744Z,54.9
2018-05-18T11:24:29.525Z,54.9
2018-05-18T11:25:38.282Z,54.9
2018-05-18T11:26:47.053Z,54.9
2018-05-18T11:27:55.922Z,54.9
2018-05-18T11:29:04.692Z,54.9
2018-05-18T11:30:13.740Z,54.9
2018-05-18T11:31:22.800Z,55
2018-05-18T11:32:32.387Z,55
2018-05-18T11:33:41.591Z,54.9
2018-05-18T11:34:50.358Z,54.9
2018-05-18T11:35:59.683Z,55
2018-05-18T11:37:08.442Z,55.19
2018-05-18T11:38:17.212Z,55
2018-05-18T11:39:25.987Z,54.9
2018-05-18T11:40:34.759Z,55
2018-05-18T11:41:43.807Z,55
2018-05-18T11:42:52.851Z,55
2018-05-18T11:44:02.176Z,55
2018-05-18T11:45:11.346Z,55.19
2018-05-18T11:46:20.391Z,55
2018-05-18T11:47:29.709Z,55
2018-05-18T11:48:38.474Z,55
2018-05-18T11:49:47.791Z,54.9
2018-05-18T11:50:56.863Z,55
2018-05-18T11:52:05.991Z,55.19
2018-05-18T11:53:14.760Z,54.9
2018-05-18T11:54:23.540Z,55
2018-05-18T11:55:32.584Z,54.9
2018-05-18T11:56:41.404Z,54.8
2018-05-18T11:57:50.176Z,54.8
2018-05-18T11:58:59.217Z,54.9
2018-05-18T12:00:08.535Z,55.1
2018-05-18T12:01:17.575Z,55.19
2018-05-18T12:02:26.773Z,55.1
2018-05-18T12:03:35.747Z,54.8
2018-05-18T12:04:44.517Z,54.9
2018-05-18T12:05:53.287Z,55.19
2018-05-18T12:07:02.326Z,54.8
2018-05-18T12:08:11.773Z,54.9
2018-05-18T12:09:20.539Z,55.1
2018-05-18T12:10:29.309Z,54.9
2018-05-18T12:11:38.349Z,54.8
2018-05-18T12:12:47.398Z,55.19
2018-05-18T12:13:56.496Z,55.19
2018-05-18T12:15:05.266Z,55.1
2018-05-18T12:16:14.043Z,55.19
2018-05-18T12:17:22.813Z,55
2018-05-18T12:18:31.586Z,55
2018-05-18T12:19:40.356Z,55.1
2018-05-18T12:20:49.136Z,55.19
2018-05-18T12:21:58.185Z,55.19
2018-05-18T12:23:07.228Z,55.1
2018-05-18T12:24:16.338Z,55
2018-05-18T12:25:25.156Z,55
2018-05-18T12:26:33.932Z,55
2018-05-18T12:27:42.701Z,55
2018-05-18T12:28:52.017Z,55.19
2018-05-18T12:30:00.793Z,55.19
2018-05-18T12:31:10.242Z,55.19
2018-05-18T12:32:19.551Z,55
2018-05-18T12:33:28.871Z,55.19
2018-05-18T12:34:37.646Z,55.1
2018-05-18T12:35:46.416Z,55.1
2018-05-18T12:36:55.855Z,55.19
2018-05-18T12:38:04.723Z,55
2018-05-18T12:39:13.412Z,55
2018-05-18T12:40:23.006Z,55
2018-05-18T12:41:32.041Z,54.9
2018-05-18T12:42:41.357Z,55.1
2018-05-18T12:43:50.401Z,55
2018-05-18T12:44:59.174Z,54.8
2018-05-18T12:46:08.221Z,55
2018-05-18T12:47:16.998Z,55
2018-05-18T12:48:25.815Z,55
2018-05-18T12:49:34.863Z,55
2018-05-18T12:50:43.636Z,54.9
2018-05-18T12:51:52.678Z,54.9
2018-05-18T12:53:01.528Z,54.9
2018-05-18T12:54:10.486Z,54.9
2018-05-18T12:55:19.318Z,55
2018-05-18T12:56:28.119Z,54.9
2018-05-18T12:57:37.211Z,54.8
2018-05-18T12:58:46.107Z,54.8
2018-05-18T12:59:55.278Z,55.19
2018-05-18T13:01:04.120Z,55
2018-05-18T13:02:13.991Z,54.8
2018-05-18T13:03:25.661Z,55.19
2018-05-18T13:04:37.211Z,55.19
2018-05-18T13:05:48.891Z,55
2018-05-18T13:07:00.586Z,55.19
2018-05-18T13:08:12.597Z,55.19
2018-05-18T13:09:23.447Z,55.19
2018-05-18T13:10:32.216Z,55.19
2018-05-18T13:11:41.086Z,55.19
2018-05-18T13:12:50.136Z,55.29
2018-05-18T13:13:58.910Z,55.29
2018-05-18T13:15:07.677Z,55.19
2018-05-18T13:16:16.450Z,55.1
2018-05-18T13:17:25.269Z,55.19
2018-05-18T13:18:34.044Z,55.19
2018-05-18T13:19:43.093Z,55.1
2018-05-18T13:20:52.137Z,55.19
2018-05-18T13:22:01.184Z,54.8
2018-05-18T13:23:10.011Z,55.19
2018-05-18T13:24:18.787Z,55
2018-05-18T13:25:27.558Z,55
2018-05-18T13:26:36.366Z,55
2018-05-18T13:27:45.470Z,54.9
2018-05-18T13:28:54.599Z,55.19
2018-05-18T13:30:03.447Z,55.19
2018-05-18T13:31:12.257Z,55.19
2018-05-18T13:32:21.146Z,55.29
2018-05-18T13:33:30.553Z,54.9
2018-05-18T13:34:39.860Z,55.47
2018-05-18T13:35:48.740Z,55.47
2018-05-18T13:36:58.076Z,55.57
2018-05-18T13:38:06.847Z,55.38
2018-05-18T13:39:15.622Z,55.67
2018-05-18T13:40:24.444Z,55.47
2018-05-18T13:41:33.480Z,55.57
2018-05-18T13:42:42.248Z,55.57
2018-05-18T13:43:51.019Z,55.67
2018-05-18T13:44:59.872Z,55.77
2018-05-18T13:46:08.931Z,55.38
2018-05-18T13:47:17.983Z,55.47
2018-05-18T13:48:26.756Z,55.67
2018-05-18T13:49:35.802Z,55.47
2018-05-18T13:50:44.843Z,55.47
2018-05-18T13:51:53.935Z,55.57
2018-05-18T13:53:02.712Z,55.47
2018-05-18T13:54:11.761Z,55.47
2018-05-18T13:55:20.531Z,55.29
2018-05-18T13:56:29.575Z,55.57
2018-05-18T13:57:38.718Z,55.57
2018-05-18T13:58:47.488Z,56.24
2018-05-18T13:59:56.804Z,56.05
2018-05-18T14:01:05.584Z,56.05
2018-05-18T14:02:14.905Z,56.15
2018-05-18T14:03:24.062Z,56.15
2018-05-18T14:04:32.835Z,55.96
2018-05-18T14:05:41.878Z,56.05
2018-05-18T14:06:50.923Z,55.77
2018-05-18T14:07:59.701Z,55.86
2018-05-18T14:09:08.772Z,55.67
2018-05-18T14:10:17.815Z,55.86
2018-05-18T14:11:26.857Z,55.77
2018-05-18T14:12:36.172Z,55.86
2018-05-18T14:13:44.948Z,55.86
2018-05-18T14:14:54.113Z,55.77
2018-05-18T14:16:03.166Z,55.77
2018-05-18T14:17:12.210Z,55.77
2018-05-18T14:18:20.976Z,55.86
2018-05-18T14:19:29.748Z,55.77
2018-05-18T14:20:38.618Z,55.57
2018-05-18T14:21:47.391Z,55.77
2018-05-18T14:22:56.697Z,55.96
2018-05-18T14:24:05.469Z,56.05
2018-05-18T14:25:14.819Z,56.05
2018-05-18T14:26:24.635Z,55.77
2018-05-18T14:27:33.963Z,56.15
2018-05-18T14:28:42.740Z,56.15
2018-05-18T14:29:51.506Z,56.15
2018-05-18T14:31:00.549Z,56.15
2018-05-18T14:32:09.596Z,56.15
2018-05-18T14:33:18.990Z,56.24
2018-05-18T14:34:27.762Z,55.86
2018-05-18T14:35:36.828Z,55.77
2018-05-18T14:36:46.167Z,55.77
2018-05-18T14:37:55.400Z,56.05
2018-05-18T14:39:04.113Z,56.05
2018-05-18T14:40:13.152Z,55.67
2018-05-18T14:41:21.925Z,55.86
2018-05-18T14:42:30.697Z,55.96
2018-05-18T14:43:40.062Z,55.67
2018-05-18T14:44:48.836Z,55.67
2018-05-18T14:45:58.417Z,55.77
2018-05-18T14:47:07.188Z,56.15
2018-05-18T14:48:16.231Z,55.77
2018-05-18T14:49:25.323Z,55.77
2018-05-18T14:50:34.094Z,56.15
2018-05-18T14:51:42.863Z,56.15
2018-05-18T14:52:52.276Z,55.77
2018-05-18T14:54:01.589Z,56.24
2018-05-18T14:55:10.730Z,55.67
2018-05-18T14:56:19.774Z,56.05
2018-05-18T14:57:29.105Z,55.96
2018-05-18T14:58:38.211Z,56.05
2018-05-18T14:59:47.199Z,55.96
2018-05-18T15:00:56.563Z,55.77
2018-05-18T15:02:05.638Z,55.86
2018-05-18T15:03:14.953Z,55.86